sensor_id;sensor_type;location;lat;lon;timestamp;P1;durP1;ratioP1;P2;durP2;ratioP2
62931;SDS011;49037;41.898;25.004;2022-12-07T00:00:55;11.75;;;5.03;;
62931;SDS011;49037;41.898;25.004;2022-12-07T00:03:29;8.68;;;5.10;;
62931;SDS011;49037;41.898;25.004;2022-12-07T00:05:57;9.63;;;4.63;;
62931;SDS011;49037;41.898;25.004;2022-12-07T00:08:23;13.43;;;5.00;;
62931;SDS011;49037;41.898;25.004;2022-12-07T00:10:48;9.38;;;4.57;;
62931;SDS011;49037;41.898;25.004;2022-12-07T00:13:14;12.27;;;5.35;;
62931;SDS011;49037;41.898;25.004;2022-12-07T00:15:39;10.40;;;5.15;;
62931;SDS011;49037;41.898;25.004;2022-12-07T00:18:05;11.13;;;5.45;;
62931;SDS011;49037;41.898;25.004;2022-12-07T00:20:30;10.00;;;4.20;;
62931;SDS011;49037;41.898;25.004;2022-12-07T00:22:56;8.25;;;4.40;;
62931;SDS011;49037;41.898;25.004;2022-12-07T00:25:21;11.63;;;4.90;;
62931;SDS011;49037;41.898;25.004;2022-12-07T00:27:47;11.27;;;4.82;;
62931;SDS011;49037;41.898;25.004;2022-12-07T00:30:12;12.50;;;5.25;;
62931;SDS011;49037;41.898;25.004;2022-12-07T00:32:38;9.70;;;5.15;;
62931;SDS011;49037;41.898;25.004;2022-12-07T00:35:03;7.50;;;4.75;;
62931;SDS011;49037;41.898;25.004;2022-12-07T00:37:29;9.05;;;4.28;;
62931;SDS011;49037;41.898;25.004;2022-12-07T00:39:55;11.63;;;4.95;;
62931;SDS011;49037;41.898;25.004;2022-12-07T00:42:20;9.73;;;4.30;;
62931;SDS011;49037;41.898;25.004;2022-12-07T00:44:45;11.95;;;5.32;;
62931;SDS011;49037;41.898;25.004;2022-12-07T00:47:11;8.45;;;4.40;;
62931;SDS011;49037;41.898;25.004;2022-12-07T00:49:36;10.50;;;4.57;;
62931;SDS011;49037;41.898;25.004;2022-12-07T00:52:02;9.85;;;4.63;;
62931;SDS011;49037;41.898;25.004;2022-12-07T00:54:28;11.23;;;4.97;;
62931;SDS011;49037;41.898;25.004;2022-12-07T00:56:53;10.30;;;4.78;;
62931;SDS011;49037;41.898;25.004;2022-12-07T00:59:18;9.48;;;3.92;;
62931;SDS011;49037;41.898;25.004;2022-12-07T01:01:44;12.18;;;4.88;;
62931;SDS011;49037;41.898;25.004;2022-12-07T01:04:09;10.88;;;4.70;;
62931;SDS011;49037;41.898;25.004;2022-12-07T01:06:35;12.15;;;5.30;;
62931;SDS011;49037;41.898;25.004;2022-12-07T01:09:00;11.80;;;5.50;;
62931;SDS011;49037;41.898;25.004;2022-12-07T01:11:27;12.75;;;5.28;;
62931;SDS011;49037;41.898;25.004;2022-12-07T01:13:55;10.93;;;5.20;;
62931;SDS011;49037;41.898;25.004;2022-12-07T01:16:23;10.98;;;5.05;;
62931;SDS011;49037;41.898;25.004;2022-12-07T01:18:50;9.75;;;4.90;;
62931;SDS011;49037;41.898;25.004;2022-12-07T01:21:17;12.55;;;5.53;;
62931;SDS011;49037;41.898;25.004;2022-12-07T01:23:47;10.50;;;5.35;;
62931;SDS011;49037;41.898;25.004;2022-12-07T01:26:15;12.43;;;5.07;;
62931;SDS011;49037;41.898;25.004;2022-12-07T01:28:42;11.77;;;4.68;;
62931;SDS011;49037;41.898;25.004;2022-12-07T01:31:10;11.30;;;5.28;;
62931;SDS011;49037;41.898;25.004;2022-12-07T01:33:37;10.90;;;5.28;;
62931;SDS011;49037;41.898;25.004;2022-12-07T01:36:04;13.23;;;5.63;;
62931;SDS011;49037;41.898;25.004;2022-12-07T01:38:32;11.20;;;5.05;;
62931;SDS011;49037;41.898;25.004;2022-12-07T01:40:58;9.85;;;4.68;;
62931;SDS011;49037;41.898;25.004;2022-12-07T01:43:26;11.85;;;5.20;;
62931;SDS011;49037;41.898;25.004;2022-12-07T01:45:53;8.35;;;4.30;;
62931;SDS011;49037;41.898;25.004;2022-12-07T01:48:21;11.85;;;4.47;;
62931;SDS011;49037;41.898;25.004;2022-12-07T01:51:09;9.20;;;4.63;;
62931;SDS011;49037;41.898;25.004;2022-12-07T01:53:38;11.55;;;4.82;;
62931;SDS011;49037;41.898;25.004;2022-12-07T01:56:08;11.32;;;4.95;;
62931;SDS011;49037;41.898;25.004;2022-12-07T01:58:37;10.43;;;4.88;;
62931;SDS011;49037;41.898;25.004;2022-12-07T02:01:03;12.95;;;5.28;;
62931;SDS011;49037;41.898;25.004;2022-12-07T02:03:34;8.40;;;4.65;;
62931;SDS011;49037;41.898;25.004;2022-12-07T02:06:04;13.82;;;5.22;;
62931;SDS011;49037;41.898;25.004;2022-12-07T02:08:31;11.63;;;5.00;;
62931;SDS011;49037;41.898;25.004;2022-12-07T02:10:58;11.90;;;5.30;;
62931;SDS011;49037;41.898;25.004;2022-12-07T02:13:25;15.20;;;6.25;;
62931;SDS011;49037;41.898;25.004;2022-12-07T02:18:44;12.43;;;5.70;;
62931;SDS011;49037;41.898;25.004;2022-12-07T02:21:27;12.07;;;4.63;;
62931;SDS011;49037;41.898;25.004;2022-12-07T02:34:42;11.13;;;4.80;;
62931;SDS011;49037;41.898;25.004;2022-12-07T02:43:26;14.68;;;5.07;;
62931;SDS011;49037;41.898;25.004;2022-12-07T02:46:01;11.77;;;4.93;;
62931;SDS011;49037;41.898;25.004;2022-12-07T02:48:30;9.98;;;4.60;;
62931;SDS011;49037;41.898;25.004;2022-12-07T02:50:57;9.27;;;4.70;;
62931;SDS011;49037;41.898;25.004;2022-12-07T02:53:30;13.07;;;5.22;;
62931;SDS011;49037;41.898;25.004;2022-12-07T02:56:05;10.60;;;4.88;;
62931;SDS011;49037;41.898;25.004;2022-12-07T02:58:58;11.55;;;5.03;;
62931;SDS011;49037;41.898;25.004;2022-12-07T03:04:14;12.38;;;4.53;;
62931;SDS011;49037;41.898;25.004;2022-12-07T03:06:59;7.07;;;4.30;;
62931;SDS011;49037;41.898;25.004;2022-12-07T03:09:37;10.10;;;4.53;;
62931;SDS011;49037;41.898;25.004;2022-12-07T03:12:30;9.50;;;4.13;;
62931;SDS011;49037;41.898;25.004;2022-12-07T03:15:07;8.82;;;3.70;;
62931;SDS011;49037;41.898;25.004;2022-12-07T03:17:41;12.02;;;4.78;;
62931;SDS011;49037;41.898;25.004;2022-12-07T03:20:09;9.13;;;4.43;;
62931;SDS011;49037;41.898;25.004;2022-12-07T03:22:40;8.80;;;4.25;;
62931;SDS011;49037;41.898;25.004;2022-12-07T03:25:10;10.82;;;4.80;;
62931;SDS011;49037;41.898;25.004;2022-12-07T03:27:46;10.73;;;4.53;;
62931;SDS011;49037;41.898;25.004;2022-12-07T03:30:29;9.82;;;4.80;;
62931;SDS011;49037;41.898;25.004;2022-12-07T03:33:11;15.77;;;4.68;;
62931;SDS011;49037;41.898;25.004;2022-12-07T03:35:42;11.10;;;5.00;;
62931;SDS011;49037;41.898;25.004;2022-12-07T03:38:15;11.13;;;5.18;;
62931;SDS011;49037;41.898;25.004;2022-12-07T03:43:29;11.00;;;4.50;;
62931;SDS011;49037;41.898;25.004;2022-12-07T03:46:17;11.13;;;4.90;;
62931;SDS011;49037;41.898;25.004;2022-12-07T03:48:59;7.97;;;3.92;;
62931;SDS011;49037;41.898;25.004;2022-12-07T03:54:41;12.80;;;4.60;;
62931;SDS011;49037;41.898;25.004;2022-12-07T03:57:16;8.75;;;4.22;;
62931;SDS011;49037;41.898;25.004;2022-12-07T03:59:43;15.98;;;5.15;;
62931;SDS011;49037;41.898;25.004;2022-12-07T04:02:10;10.95;;;5.28;;
62931;SDS011;49037;41.898;25.004;2022-12-07T04:04:37;10.52;;;4.18;;
62931;SDS011;49037;41.898;25.004;2022-12-07T04:07:03;11.15;;;5.40;;
62931;SDS011;49037;41.898;25.004;2022-12-07T04:09:29;14.38;;;5.40;;
62931;SDS011;49037;41.898;25.004;2022-12-07T04:11:54;13.90;;;5.55;;
62931;SDS011;49037;41.898;25.004;2022-12-07T04:14:20;7.65;;;3.75;;
62931;SDS011;49037;41.898;25.004;2022-12-07T04:19:12;8.10;;;4.13;;
62931;SDS011;49037;41.898;25.004;2022-12-07T04:21:38;10.82;;;5.18;;
62931;SDS011;49037;41.898;25.004;2022-12-07T04:24:03;8.57;;;4.45;;
62931;SDS011;49037;41.898;25.004;2022-12-07T04:26:29;13.77;;;5.25;;
62931;SDS011;49037;41.898;25.004;2022-12-07T04:28:55;12.15;;;5.05;;
62931;SDS011;49037;41.898;25.004;2022-12-07T04:31:20;11.48;;;4.43;;
62931;SDS011;49037;41.898;25.004;2022-12-07T04:33:47;10.70;;;4.88;;
62931;SDS011;49037;41.898;25.004;2022-12-07T04:36:13;13.95;;;5.57;;
62931;SDS011;49037;41.898;25.004;2022-12-07T04:38:39;12.80;;;5.20;;
62931;SDS011;49037;41.898;25.004;2022-12-07T04:41:05;10.43;;;5.22;;
62931;SDS011;49037;41.898;25.004;2022-12-07T04:43:32;8.50;;;4.25;;
62931;SDS011;49037;41.898;25.004;2022-12-07T04:45:58;11.00;;;4.57;;
62931;SDS011;49037;41.898;25.004;2022-12-07T04:48:24;11.95;;;5.95;;
62931;SDS011;49037;41.898;25.004;2022-12-07T04:50:49;16.70;;;5.68;;
62931;SDS011;49037;41.898;25.004;2022-12-07T04:53:15;16.20;;;5.88;;
62931;SDS011;49037;41.898;25.004;2022-12-07T04:55:40;17.33;;;4.88;;
62931;SDS011;49037;41.898;25.004;2022-12-07T04:58:06;13.02;;;5.25;;
62931;SDS011;49037;41.898;25.004;2022-12-07T05:00:32;13.48;;;5.63;;
62931;SDS011;49037;41.898;25.004;2022-12-07T05:02:57;12.65;;;4.90;;
62931;SDS011;49037;41.898;25.004;2022-12-07T05:05:23;12.02;;;5.75;;
62931;SDS011;49037;41.898;25.004;2022-12-07T05:07:49;10.40;;;5.85;;
62931;SDS011;49037;41.898;25.004;2022-12-07T05:10:14;12.00;;;4.85;;
62931;SDS011;49037;41.898;25.004;2022-12-07T05:12:40;11.68;;;4.82;;
62931;SDS011;49037;41.898;25.004;2022-12-07T05:15:05;12.85;;;4.25;;
62931;SDS011;49037;41.898;25.004;2022-12-07T05:17:31;9.35;;;3.85;;
62931;SDS011;49037;41.898;25.004;2022-12-07T05:19:57;12.35;;;4.75;;
62931;SDS011;49037;41.898;25.004;2022-12-07T05:22:22;14.35;;;5.38;;
62931;SDS011;49037;41.898;25.004;2022-12-07T05:24:50;10.95;;;4.55;;
62931;SDS011;49037;41.898;25.004;2022-12-07T05:27:15;13.32;;;5.07;;
62931;SDS011;49037;41.898;25.004;2022-12-07T05:29:41;13.48;;;5.03;;
62931;SDS011;49037;41.898;25.004;2022-12-07T05:32:06;14.15;;;5.70;;
62931;SDS011;49037;41.898;25.004;2022-12-07T05:34:32;17.88;;;5.43;;
62931;SDS011;49037;41.898;25.004;2022-12-07T05:36:57;10.13;;;4.90;;
62931;SDS011;49037;41.898;25.004;2022-12-07T05:39:22;12.90;;;5.43;;
62931;SDS011;49037;41.898;25.004;2022-12-07T05:41:48;10.02;;;4.72;;
62931;SDS011;49037;41.898;25.004;2022-12-07T05:44:32;11.63;;;4.40;;
62931;SDS011;49037;41.898;25.004;2022-12-07T05:46:57;10.48;;;4.82;;
62931;SDS011;49037;41.898;25.004;2022-12-07T05:49:23;13.10;;;5.32;;
62931;SDS011;49037;41.898;25.004;2022-12-07T05:51:48;10.77;;;4.47;;
62931;SDS011;49037;41.898;25.004;2022-12-07T05:54:13;18.25;;;7.88;;
62931;SDS011;49037;41.898;25.004;2022-12-07T05:56:39;11.90;;;5.28;;
62931;SDS011;49037;41.898;25.004;2022-12-07T05:59:04;14.05;;;4.82;;
62931;SDS011;49037;41.898;25.004;2022-12-07T06:01:56;16.08;;;5.72;;
62931;SDS011;49037;41.898;25.004;2022-12-07T06:04:27;10.55;;;4.53;;
62931;SDS011;49037;41.898;25.004;2022-12-07T06:06:54;14.50;;;5.22;;
62931;SDS011;49037;41.898;25.004;2022-12-07T06:09:20;9.60;;;4.95;;
62931;SDS011;49037;41.898;25.004;2022-12-07T06:11:47;11.00;;;4.70;;
62931;SDS011;49037;41.898;25.004;2022-12-07T06:14:31;10.40;;;4.60;;
62931;SDS011;49037;41.898;25.004;2022-12-07T06:16:57;6.70;;;4.07;;
62931;SDS011;49037;41.898;25.004;2022-12-07T06:19:23;10.63;;;4.57;;
62931;SDS011;49037;41.898;25.004;2022-12-07T06:21:48;13.90;;;5.40;;
62931;SDS011;49037;41.898;25.004;2022-12-07T06:24:14;13.43;;;4.75;;
62931;SDS011;49037;41.898;25.004;2022-12-07T06:26:41;11.23;;;5.15;;
62931;SDS011;49037;41.898;25.004;2022-12-07T06:29:07;12.25;;;5.35;;
62931;SDS011;49037;41.898;25.004;2022-12-07T06:31:33;10.93;;;4.93;;
62931;SDS011;49037;41.898;25.004;2022-12-07T06:33:59;10.35;;;4.65;;
62931;SDS011;49037;41.898;25.004;2022-12-07T06:38:54;12.48;;;5.50;;
62931;SDS011;49037;41.898;25.004;2022-12-07T06:41:20;11.23;;;4.47;;
62931;SDS011;49037;41.898;25.004;2022-12-07T06:43:46;9.25;;;4.50;;
62931;SDS011;49037;41.898;25.004;2022-12-07T06:46:11;9.00;;;3.90;;
62931;SDS011;49037;41.898;25.004;2022-12-07T06:48:37;10.30;;;5.03;;
62931;SDS011;49037;41.898;25.004;2022-12-07T06:51:03;10.48;;;5.00;;
62931;SDS011;49037;41.898;25.004;2022-12-07T06:53:28;17.20;;;5.28;;
62931;SDS011;49037;41.898;25.004;2022-12-07T06:55:54;8.70;;;4.35;;
62931;SDS011;49037;41.898;25.004;2022-12-07T06:58:19;13.85;;;4.93;;
62931;SDS011;49037;41.898;25.004;2022-12-07T07:00:45;8.02;;;4.10;;
62931;SDS011;49037;41.898;25.004;2022-12-07T07:03:10;12.27;;;4.50;;
62931;SDS011;49037;41.898;25.004;2022-12-07T07:05:36;10.93;;;4.47;;
62931;SDS011;49037;41.898;25.004;2022-12-07T07:08:02;8.30;;;4.47;;
62931;SDS011;49037;41.898;25.004;2022-12-07T07:10:28;11.07;;;5.75;;
62931;SDS011;49037;41.898;25.004;2022-12-07T07:12:53;11.02;;;4.93;;
62931;SDS011;49037;41.898;25.004;2022-12-07T07:15:19;14.02;;;5.07;;
62931;SDS011;49037;41.898;25.004;2022-12-07T07:17:44;9.65;;;5.00;;
62931;SDS011;49037;41.898;25.004;2022-12-07T07:20:10;12.52;;;4.82;;
62931;SDS011;49037;41.898;25.004;2022-12-07T07:22:36;9.93;;;4.20;;
62931;SDS011;49037;41.898;25.004;2022-12-07T07:25:01;18.58;;;7.60;;
62931;SDS011;49037;41.898;25.004;2022-12-07T07:27:27;65.13;;;24.73;;
62931;SDS011;49037;41.898;25.004;2022-12-07T07:29:52;39.45;;;16.42;;
62931;SDS011;49037;41.898;25.004;2022-12-07T07:32:18;53.38;;;28.25;;
62931;SDS011;49037;41.898;25.004;2022-12-07T07:34:44;17.13;;;7.47;;
62931;SDS011;49037;41.898;25.004;2022-12-07T07:37:09;11.65;;;5.20;;
62931;SDS011;49037;41.898;25.004;2022-12-07T07:39:37;14.65;;;5.90;;
62931;SDS011;49037;41.898;25.004;2022-12-07T07:42:03;17.70;;;7.05;;
62931;SDS011;49037;41.898;25.004;2022-12-07T07:44:28;15.18;;;6.78;;
62931;SDS011;49037;41.898;25.004;2022-12-07T07:46:54;18.77;;;8.95;;
62931;SDS011;49037;41.898;25.004;2022-12-07T07:49:19;33.38;;;14.85;;
62931;SDS011;49037;41.898;25.004;2022-12-07T07:51:45;18.25;;;8.10;;
62931;SDS011;49037;41.898;25.004;2022-12-07T07:54:10;17.70;;;7.43;;
62931;SDS011;49037;41.898;25.004;2022-12-07T07:56:36;19.17;;;8.60;;
62931;SDS011;49037;41.898;25.004;2022-12-07T07:59:01;19.75;;;8.30;;
62931;SDS011;49037;41.898;25.004;2022-12-07T08:01:27;18.27;;;9.85;;
62931;SDS011;49037;41.898;25.004;2022-12-07T08:03:53;25.63;;;11.90;;
62931;SDS011;49037;41.898;25.004;2022-12-07T08:06:18;18.83;;;10.73;;
62931;SDS011;49037;41.898;25.004;2022-12-07T08:08:44;29.88;;;12.95;;
62931;SDS011;49037;41.898;25.004;2022-12-07T08:11:11;29.30;;;15.80;;
62931;SDS011;49037;41.898;25.004;2022-12-07T08:13:37;36.97;;;17.52;;
62931;SDS011;49037;41.898;25.004;2022-12-07T08:16:03;35.15;;;16.17;;
62931;SDS011;49037;41.898;25.004;2022-12-07T08:18:30;30.58;;;15.23;;
62931;SDS011;49037;41.898;25.004;2022-12-07T08:21:05;30.23;;;15.68;;
62931;SDS011;49037;41.898;25.004;2022-12-07T08:23:31;30.92;;;17.60;;
62931;SDS011;49037;41.898;25.004;2022-12-07T08:26:01;26.13;;;12.20;;
62931;SDS011;49037;41.898;25.004;2022-12-07T08:28:28;25.73;;;13.13;;
62931;SDS011;49037;41.898;25.004;2022-12-07T08:31:00;28.50;;;14.23;;
62931;SDS011;49037;41.898;25.004;2022-12-07T08:33:27;65.90;;;42.08;;
62931;SDS011;49037;41.898;25.004;2022-12-07T08:35:53;25.48;;;13.95;;
62931;SDS011;49037;41.898;25.004;2022-12-07T08:38:18;20.10;;;11.02;;
62931;SDS011;49037;41.898;25.004;2022-12-07T08:40:44;26.00;;;15.85;;
62931;SDS011;49037;41.898;25.004;2022-12-07T08:43:09;26.33;;;15.27;;
62931;SDS011;49037;41.898;25.004;2022-12-07T08:45:35;28.33;;;13.52;;
62931;SDS011;49037;41.898;25.004;2022-12-07T08:50:31;19.73;;;9.73;;
62931;SDS011;49037;41.898;25.004;2022-12-07T08:52:58;19.23;;;9.35;;
62931;SDS011;49037;41.898;25.004;2022-12-07T08:55:25;22.98;;;9.25;;
62931;SDS011;49037;41.898;25.004;2022-12-07T08:57:51;20.42;;;8.57;;
62931;SDS011;49037;41.898;25.004;2022-12-07T09:00:16;21.95;;;9.57;;
62931;SDS011;49037;41.898;25.004;2022-12-07T09:02:43;19.42;;;8.90;;
62931;SDS011;49037;41.898;25.004;2022-12-07T09:05:09;20.75;;;9.35;;
62931;SDS011;49037;41.898;25.004;2022-12-07T09:07:35;20.45;;;7.90;;
62931;SDS011;49037;41.898;25.004;2022-12-07T09:10:01;19.40;;;8.00;;
62931;SDS011;49037;41.898;25.004;2022-12-07T09:12:28;18.35;;;7.95;;
62931;SDS011;49037;41.898;25.004;2022-12-07T09:14:53;18.58;;;8.43;;
62931;SDS011;49037;41.898;25.004;2022-12-07T09:17:19;19.83;;;9.63;;
62931;SDS011;49037;41.898;25.004;2022-12-07T09:19:44;22.80;;;10.07;;
62931;SDS011;49037;41.898;25.004;2022-12-07T09:22:10;20.83;;;9.48;;
62931;SDS011;49037;41.898;25.004;2022-12-07T09:24:35;22.67;;;10.18;;
62931;SDS011;49037;41.898;25.004;2022-12-07T09:27:01;22.33;;;9.27;;
62931;SDS011;49037;41.898;25.004;2022-12-07T09:29:26;21.48;;;8.85;;
62931;SDS011;49037;41.898;25.004;2022-12-07T09:31:52;20.60;;;8.93;;
62931;SDS011;49037;41.898;25.004;2022-12-07T09:34:17;18.48;;;8.82;;
62931;SDS011;49037;41.898;25.004;2022-12-07T09:36:43;20.23;;;9.05;;
62931;SDS011;49037;41.898;25.004;2022-12-07T09:39:09;19.05;;;9.43;;
62931;SDS011;49037;41.898;25.004;2022-12-07T09:41:37;21.35;;;9.10;;
62931;SDS011;49037;41.898;25.004;2022-12-07T09:44:05;21.33;;;9.10;;
62931;SDS011;49037;41.898;25.004;2022-12-07T09:46:38;23.88;;;9.55;;
62931;SDS011;49037;41.898;25.004;2022-12-07T09:49:05;23.05;;;9.65;;
62931;SDS011;49037;41.898;25.004;2022-12-07T09:51:38;26.02;;;10.05;;
62931;SDS011;49037;41.898;25.004;2022-12-07T09:54:03;25.33;;;9.73;;
62931;SDS011;49037;41.898;25.004;2022-12-07T09:56:29;20.45;;;8.85;;
62931;SDS011;49037;41.898;25.004;2022-12-07T09:58:59;23.60;;;11.05;;
62931;SDS011;49037;41.898;25.004;2022-12-07T10:01:33;25.17;;;11.63;;
62931;SDS011;49037;41.898;25.004;2022-12-07T10:04:12;39.33;;;21.08;;
62931;SDS011;49037;41.898;25.004;2022-12-07T10:06:41;41.53;;;18.80;;
62931;SDS011;49037;41.898;25.004;2022-12-07T10:09:14;26.08;;;12.65;;
62931;SDS011;49037;41.898;25.004;2022-12-07T10:11:58;22.63;;;12.15;;
62931;SDS011;49037;41.898;25.004;2022-12-07T10:20:45;22.17;;;10.75;;
62931;SDS011;49037;41.898;25.004;2022-12-07T10:23:14;26.05;;;11.75;;
62931;SDS011;49037;41.898;25.004;2022-12-07T10:25:41;22.08;;;9.98;;
62931;SDS011;49037;41.898;25.004;2022-12-07T10:30:33;22.83;;;9.98;;
62931;SDS011;49037;41.898;25.004;2022-12-07T10:37:23;24.33;;;11.98;;
62931;SDS011;49037;41.898;25.004;2022-12-07T10:39:56;27.80;;;12.02;;
62931;SDS011;49037;41.898;25.004;2022-12-07T10:42:25;24.50;;;9.30;;
62931;SDS011;49037;41.898;25.004;2022-12-07T10:46:41;19.73;;;8.38;;
62931;SDS011;49037;41.898;25.004;2022-12-07T10:49:25;20.88;;;9.95;;
62931;SDS011;49037;41.898;25.004;2022-12-07T10:55:05;39.42;;;17.98;;
62931;SDS011;49037;41.898;25.004;2022-12-07T11:07:16;21.08;;;8.85;;
62931;SDS011;49037;41.898;25.004;2022-12-07T11:10:21;22.70;;;9.65;;
62931;SDS011;49037;41.898;25.004;2022-12-07T11:12:49;21.33;;;10.15;;
62931;SDS011;49037;41.898;25.004;2022-12-07T11:15:26;20.45;;;9.00;;
62931;SDS011;49037;41.898;25.004;2022-12-07T11:23:42;21.17;;;9.57;;
62931;SDS011;49037;41.898;25.004;2022-12-07T11:26:53;23.38;;;11.18;;
62931;SDS011;49037;41.898;25.004;2022-12-07T11:34:35;20.35;;;8.90;;
62931;SDS011;49037;41.898;25.004;2022-12-07T11:37:33;22.48;;;9.90;;
62931;SDS011;49037;41.898;25.004;2022-12-07T11:40:02;24.27;;;10.23;;
62931;SDS011;49037;41.898;25.004;2022-12-07T11:42:49;22.77;;;9.77;;
62931;SDS011;49037;41.898;25.004;2022-12-07T11:45:27;25.63;;;10.63;;
62931;SDS011;49037;41.898;25.004;2022-12-07T11:51:10;25.30;;;11.80;;
62931;SDS011;49037;41.898;25.004;2022-12-07T11:53:41;26.92;;;11.85;;
62931;SDS011;49037;41.898;25.004;2022-12-07T11:56:19;22.33;;;10.07;;
62931;SDS011;49037;41.898;25.004;2022-12-07T12:06:31;20.77;;;10.20;;
62931;SDS011;49037;41.898;25.004;2022-12-07T12:09:13;23.17;;;11.32;;
62931;SDS011;49037;41.898;25.004;2022-12-07T12:14:42;22.30;;;10.23;;
62931;SDS011;49037;41.898;25.004;2022-12-07T12:20:05;23.63;;;10.32;;
62931;SDS011;49037;41.898;25.004;2022-12-07T12:22:45;23.60;;;10.93;;
62931;SDS011;49037;41.898;25.004;2022-12-07T12:33:57;22.85;;;10.43;;
62931;SDS011;49037;41.898;25.004;2022-12-07T12:44:02;21.75;;;10.52;;
62931;SDS011;49037;41.898;25.004;2022-12-07T12:46:58;26.63;;;12.73;;
62931;SDS011;49037;41.898;25.004;2022-12-07T12:57:26;64.45;;;27.77;;
62931;SDS011;49037;41.898;25.004;2022-12-07T13:08:13;25.02;;;11.45;;
62931;SDS011;49037;41.898;25.004;2022-12-07T13:15:34;26.38;;;11.23;;
62931;SDS011;49037;41.898;25.004;2022-12-07T13:23:27;24.67;;;10.38;;
62931;SDS011;49037;41.898;25.004;2022-12-07T13:31:45;23.15;;;10.38;;
62931;SDS011;49037;41.898;25.004;2022-12-07T13:37:13;27.00;;;11.35;;
62931;SDS011;49037;41.898;25.004;2022-12-07T13:39:52;24.23;;;11.05;;
62931;SDS011;49037;41.898;25.004;2022-12-07T13:42:22;30.15;;;14.80;;
62931;SDS011;49037;41.898;25.004;2022-12-07T13:44:51;24.77;;;12.65;;
62931;SDS011;49037;41.898;25.004;2022-12-07T13:47:18;35.08;;;15.15;;
62931;SDS011;49037;41.898;25.004;2022-12-07T13:49:52;28.20;;;13.07;;
62931;SDS011;49037;41.898;25.004;2022-12-07T13:57:22;24.55;;;11.00;;
62931;SDS011;49037;41.898;25.004;2022-12-07T13:59:50;26.50;;;12.38;;
62931;SDS011;49037;41.898;25.004;2022-12-07T14:02:21;24.50;;;10.45;;
62931;SDS011;49037;41.898;25.004;2022-12-07T14:04:50;23.65;;;9.95;;
62931;SDS011;49037;41.898;25.004;2022-12-07T14:07:21;23.08;;;10.80;;
62931;SDS011;49037;41.898;25.004;2022-12-07T14:09:57;22.75;;;11.13;;
62931;SDS011;49037;41.898;25.004;2022-12-07T14:12:25;22.10;;;10.90;;
62931;SDS011;49037;41.898;25.004;2022-12-07T14:14:51;23.27;;;11.98;;
62931;SDS011;49037;41.898;25.004;2022-12-07T14:17:24;28.05;;;13.10;;
62931;SDS011;49037;41.898;25.004;2022-12-07T14:22:23;23.90;;;11.23;;
62931;SDS011;49037;41.898;25.004;2022-12-07T14:24:57;24.48;;;11.50;;
62931;SDS011;49037;41.898;25.004;2022-12-07T14:27:24;21.02;;;10.07;;
62931;SDS011;49037;41.898;25.004;2022-12-07T14:29:55;25.13;;;11.85;;
62931;SDS011;49037;41.898;25.004;2022-12-07T14:32:23;27.38;;;10.20;;
62931;SDS011;49037;41.898;25.004;2022-12-07T14:34:59;25.50;;;10.45;;
62931;SDS011;49037;41.898;25.004;2022-12-07T14:37:35;21.58;;;9.90;;
62931;SDS011;49037;41.898;25.004;2022-12-07T14:40:02;22.55;;;10.35;;
62931;SDS011;49037;41.898;25.004;2022-12-07T14:42:28;23.75;;;9.68;;
62931;SDS011;49037;41.898;25.004;2022-12-07T14:44:56;21.92;;;9.50;;
62931;SDS011;49037;41.898;25.004;2022-12-07T14:47:22;20.20;;;9.40;;
62931;SDS011;49037;41.898;25.004;2022-12-07T14:49:48;25.73;;;10.23;;
62931;SDS011;49037;41.898;25.004;2022-12-07T14:52:24;21.45;;;9.13;;
62931;SDS011;49037;41.898;25.004;2022-12-07T14:54:53;21.23;;;9.48;;
62931;SDS011;49037;41.898;25.004;2022-12-07T14:57:19;22.75;;;9.27;;
62931;SDS011;49037;41.898;25.004;2022-12-07T14:59:44;23.45;;;9.70;;
62931;SDS011;49037;41.898;25.004;2022-12-07T15:02:13;22.77;;;10.40;;
62931;SDS011;49037;41.898;25.004;2022-12-07T15:04:40;31.38;;;15.00;;
62931;SDS011;49037;41.898;25.004;2022-12-07T15:07:09;32.55;;;15.50;;
62931;SDS011;49037;41.898;25.004;2022-12-07T15:09:43;25.33;;;12.43;;
62931;SDS011;49037;41.898;25.004;2022-12-07T15:12:09;24.67;;;11.82;;
62931;SDS011;49037;41.898;25.004;2022-12-07T15:14:34;25.35;;;10.35;;
62931;SDS011;49037;41.898;25.004;2022-12-07T15:17:00;21.92;;;10.40;;
62931;SDS011;49037;41.898;25.004;2022-12-07T15:19:25;30.95;;;12.57;;
62931;SDS011;49037;41.898;25.004;2022-12-07T15:21:52;26.90;;;12.07;;
62931;SDS011;49037;41.898;25.004;2022-12-07T15:24:18;36.47;;;16.02;;
62931;SDS011;49037;41.898;25.004;2022-12-07T15:26:44;24.95;;;11.82;;
62931;SDS011;49037;41.898;25.004;2022-12-07T15:29:09;25.42;;;10.93;;
62931;SDS011;49037;41.898;25.004;2022-12-07T15:31:35;33.75;;;14.75;;
62931;SDS011;49037;41.898;25.004;2022-12-07T15:34:01;28.25;;;15.55;;
62931;SDS011;49037;41.898;25.004;2022-12-07T15:36:28;33.55;;;16.88;;
62931;SDS011;49037;41.898;25.004;2022-12-07T15:38:56;37.63;;;16.88;;
62931;SDS011;49037;41.898;25.004;2022-12-07T15:41:21;34.00;;;15.85;;
62931;SDS011;49037;41.898;25.004;2022-12-07T15:43:47;35.03;;;15.93;;
62931;SDS011;49037;41.898;25.004;2022-12-07T15:46:32;31.15;;;14.02;;
62931;SDS011;49037;41.898;25.004;2022-12-07T15:48:59;36.42;;;16.52;;
62931;SDS011;49037;41.898;25.004;2022-12-07T15:51:25;34.30;;;13.85;;
62931;SDS011;49037;41.898;25.004;2022-12-07T15:53:57;30.05;;;12.20;;
62931;SDS011;49037;41.898;25.004;2022-12-07T15:56:23;32.83;;;14.52;;
62931;SDS011;49037;41.898;25.004;2022-12-07T15:58:48;32.85;;;11.85;;
62931;SDS011;49037;41.898;25.004;2022-12-07T16:01:14;36.17;;;15.02;;
62931;SDS011;49037;41.898;25.004;2022-12-07T16:03:43;24.50;;;9.48;;
62931;SDS011;49037;41.898;25.004;2022-12-07T16:06:09;33.42;;;14.02;;
62931;SDS011;49037;41.898;25.004;2022-12-07T16:08:41;35.28;;;17.70;;
62931;SDS011;49037;41.898;25.004;2022-12-07T16:11:11;35.38;;;17.45;;
62931;SDS011;49037;41.898;25.004;2022-12-07T16:13:37;26.15;;;10.65;;
62931;SDS011;49037;41.898;25.004;2022-12-07T16:16:06;28.08;;;12.30;;
62931;SDS011;49037;41.898;25.004;2022-12-07T16:18:35;34.03;;;14.13;;
62931;SDS011;49037;41.898;25.004;2022-12-07T16:21:00;27.33;;;10.75;;
62931;SDS011;49037;41.898;25.004;2022-12-07T16:23:26;31.13;;;13.32;;
62931;SDS011;49037;41.898;25.004;2022-12-07T16:25:52;27.27;;;12.25;;
62931;SDS011;49037;41.898;25.004;2022-12-07T16:28:18;29.02;;;12.70;;
62931;SDS011;49037;41.898;25.004;2022-12-07T16:30:43;24.67;;;11.32;;
62931;SDS011;49037;41.898;25.004;2022-12-07T16:33:09;27.02;;;10.77;;
62931;SDS011;49037;41.898;25.004;2022-12-07T16:35:38;24.48;;;10.48;;
62931;SDS011;49037;41.898;25.004;2022-12-07T16:38:08;28.55;;;11.43;;
62931;SDS011;49037;41.898;25.004;2022-12-07T16:40:34;27.02;;;11.13;;
62931;SDS011;49037;41.898;25.004;2022-12-07T16:42:59;31.90;;;11.05;;
62931;SDS011;49037;41.898;25.004;2022-12-07T16:45:25;23.45;;;9.68;;
62931;SDS011;49037;41.898;25.004;2022-12-07T16:47:50;22.15;;;10.07;;
62931;SDS011;49037;41.898;25.004;2022-12-07T16:50:16;20.98;;;9.75;;
62931;SDS011;49037;41.898;25.004;2022-12-07T16:52:41;28.90;;;10.35;;
62931;SDS011;49037;41.898;25.004;2022-12-07T16:55:07;26.33;;;10.70;;
62931;SDS011;49037;41.898;25.004;2022-12-07T16:57:32;22.30;;;8.77;;